createdAt,value
2019-03-17T00:00:04.709Z,103
2019-03-17T00:00:06.962Z,104
2019-03-17T00:00:12.729Z,103
2019-03-17T00:00:19.634Z,102
2019-03-17T00:00:23.120Z,104
2019-03-17T00:00:28.945Z,105
2019-03-17T00:00:30.197Z,104
2019-03-17T00:00:41.498Z,106
2019-03-17T00:00:44.914Z,105
2019-03-17T00:00:49.568Z,104
2019-03-17T00:00:51.860Z,102
2019-03-17T00:00:58.608Z,108
2019-03-17T00:01:02.191Z,109
2019-03-17T00:01:04.602Z,111
2019-03-17T00:01:12.026Z,109
2019-03-17T00:01:14.652Z,111
2019-03-17T00:01:16.958Z,109
2019-03-17T00:01:21.604Z,108
2019-03-17T00:01:22.740Z,110
2019-03-17T00:01:28.580Z,111
2019-03-17T00:01:30.927Z,107
2019-03-17T00:01:38.885Z,104
2019-03-17T00:01:43.524Z,105
2019-03-17T00:02:00.593Z,102
2019-03-17T00:02:04.006Z,103
2019-03-17T00:02:09.672Z,102
2019-03-17T00:02:19.046Z,103
2019-03-17T00:02:22.432Z,105
2019-03-17T00:02:26.100Z,103
2019-03-17T00:02:33.343Z,105
2019-03-17T00:02:36.781Z,102
2019-03-17T00:02:41.314Z,103
2019-03-17T00:02:51.694Z,101
2019-03-17T00:03:04.180Z,102
2019-03-17T00:03:06.496Z,103
2019-03-17T00:03:09.961Z,99
2019-03-17T00:03:12.250Z,100
2019-03-17T00:03:16.876Z,101
2019-03-17T00:03:19.243Z,102
2019-03-17T00:03:22.719Z,104
2019-03-17T00:03:26.190Z,103
2019-03-17T00:03:31.272Z,100
2019-03-17T00:03:37.026Z,102
2019-03-17T00:03:45.867Z,100
2019-03-17T00:03:50.537Z,99
2019-03-17T00:03:52.815Z,98
2019-03-17T00:03:58.682Z,99
2019-03-17T00:03:59.917Z,101
2019-03-17T00:04:05.727Z,98
2019-03-17T00:04:09.239Z,102
2019-03-17T00:04:15.074Z,103
2019-03-17T00:04:32.291Z,105
2019-03-17T00:04:35.834Z,103
2019-03-17T00:04:40.536Z,105
2019-03-17T00:04:45.318Z,106
2019-03-17T00:04:47.678Z,107
2019-03-17T00:04:53.528Z,105
2019-03-17T00:04:56.122Z,104
2019-03-17T00:04:59.586Z,101
2019-03-17T00:05:06.363Z,94
2019-03-17T00:05:10.867Z,93
2019-03-17T00:05:19.173Z,95
2019-03-17T00:05:27.327Z,96
2019-03-17T00:05:33.028Z,94
2019-03-17T00:05:38.997Z,95
2019-03-17T00:05:44.851Z,93
2019-03-17T00:05:50.636Z,92
2019-03-17T00:05:54.162Z,93
2019-03-17T00:05:57.674Z,94
2019-03-17T00:06:03.467Z,95
2019-03-17T00:06:07.702Z,94
2019-03-17T00:06:12.424Z,92
2019-03-17T00:06:19.243Z,91
2019-03-17T00:06:22.879Z,93
2019-03-17T00:06:29.658Z,95
2019-03-17T00:06:36.325Z,96
2019-03-17T00:06:39.819Z,97
2019-03-17T00:06:45.625Z,98
2019-03-17T00:06:50.134Z,100
2019-03-17T00:06:55.953Z,101
2019-03-17T00:07:01.754Z,100
2019-03-17T00:07:08.521Z,92
2019-03-17T00:07:13.116Z,94
2019-03-17T00:07:20.973Z,97
2019-03-17T00:07:23.295Z,95
2019-03-17T00:07:28.993Z,94
2019-03-17T00:07:34.652Z,96
2019-03-17T00:07:46.136Z,99
2019-03-17T00:07:48.532Z,100
2019-03-17T00:07:52.039Z,99
2019-03-17T00:07:55.584Z,102
2019-03-17T00:07:59.062Z,100
2019-03-17T00:08:03.717Z,101
2019-03-17T00:08:06.088Z,98
2019-03-17T00:08:10.684Z,96
2019-03-17T00:08:13.020Z,98
2019-03-17T00:08:15.267Z,96
2019-03-17T00:08:19.833Z,97
2019-03-17T00:08:27.983Z,94
2019-03-17T00:08:30.380Z,97
2019-03-17T00:08:35.180Z,95
2019-03-17T00:08:37.446Z,96
2019-03-17T00:08:43.250Z,97
2019-03-17T00:08:50.986Z,98
2019-03-17T00:08:56.815Z,97
2019-03-17T00:09:02.610Z,104
2019-03-17T00:09:10.440Z,103
2019-03-17T00:09:13.804Z,100
2019-03-17T00:09:19.673Z,102
2019-03-17T00:09:25.518Z,105
2019-03-17T00:09:26.869Z,104
2019-03-17T00:09:30.457Z,105
2019-03-17T00:09:33.982Z,102
2019-03-17T00:09:37.094Z,100
2019-03-17T00:09:47.375Z,101
2019-03-17T00:09:50.915Z,102
2019-03-17T00:09:55.438Z,105
2019-03-17T00:10:00.356Z,104
2019-03-17T00:10:05.017Z,99
2019-03-17T00:10:10.741Z,97
2019-03-17T00:10:13.106Z,95
2019-03-17T00:10:20.049Z,94
2019-03-17T00:10:24.753Z,91
2019-03-17T00:10:25.948Z,90
2019-03-17T00:10:30.591Z,94
2019-03-17T00:10:32.861Z,95
2019-03-17T00:10:36.424Z,97
2019-03-17T00:10:41.035Z,98
2019-03-17T00:10:49.048Z,97
2019-03-17T00:10:57.364Z,98
2019-03-17T00:11:01.985Z,97
2019-03-17T00:11:12.177Z,102
2019-03-17T00:11:15.609Z,103
2019-03-17T00:11:21.330Z,102
2019-03-17T00:11:24.858Z,104
2019-03-17T00:11:30.826Z,107
2019-03-17T00:11:35.368Z,104
2019-03-17T00:11:38.864Z,106
2019-03-17T00:11:42.420Z,103
2019-03-17T00:11:48.156Z,101
2019-03-17T00:11:49.388Z,99
2019-03-17T00:11:55.138Z,100
2019-03-17T00:11:59.752Z,97
2019-03-17T00:12:06.649Z,94
2019-03-17T00:12:10.126Z,93
2019-03-17T00:12:14.721Z,94
2019-03-17T00:12:20.532Z,95
2019-03-17T00:12:24.007Z,97
2019-03-17T00:12:34.870Z,100
2019-03-17T00:12:40.642Z,102
2019-03-17T00:12:41.886Z,103
2019-03-17T00:12:46.647Z,108
2019-03-17T00:12:49.017Z,107
2019-03-17T00:12:52.485Z,105
2019-03-17T00:12:59.331Z,106
2019-03-17T00:13:03.916Z,105
2019-03-17T00:13:13.097Z,100
2019-03-17T00:13:17.761Z,99
2019-03-17T00:13:20.284Z,103
2019-03-17T00:13:27.178Z,104
2019-03-17T00:13:29.618Z,102
2019-03-17T00:13:33.051Z,101
2019-03-17T00:13:40.050Z,102
2019-03-17T00:13:42.416Z,103
2019-03-17T00:13:46.956Z,102
2019-03-17T00:13:49.263Z,104
2019-03-17T00:13:55.134Z,103
2019-03-17T00:13:59.789Z,104
2019-03-17T00:14:05.741Z,103
2019-03-17T00:14:10.273Z,105
2019-03-17T00:14:16.168Z,103
2019-03-17T00:14:19.675Z,104
2019-03-17T00:14:24.269Z,103
2019-03-17T00:14:28.733Z,102
2019-03-17T00:14:31.161Z,104
2019-03-17T00:14:38.058Z,107
2019-03-17T00:14:39.286Z,108
2019-03-17T00:14:43.918Z,107
2019-03-17T00:14:47.296Z,108
2019-03-17T00:14:50.756Z,107
2019-03-17T00:15:09.976Z,105
2019-03-17T00:15:16.753Z,103
2019-03-17T00:15:19.030Z,102
2019-03-17T00:15:23.563Z,101
2019-03-17T00:15:29.391Z,105
2019-03-17T00:15:32.939Z,103
2019-03-17T00:15:38.679Z,101
2019-03-17T00:15:41.055Z,99
2019-03-17T00:15:46.866Z,97
2019-03-17T00:15:51.511Z,95
2019-03-17T00:15:55.060Z,99
2019-03-17T00:16:02.942Z,101
2019-03-17T00:16:05.311Z,100
2019-03-17T00:16:07.656Z,99
2019-03-17T00:16:12.234Z,101
2019-03-17T00:16:14.527Z,103
2019-03-17T00:16:16.870Z,102
2019-03-17T00:16:20.323Z,106
2019-03-17T00:16:25.028Z,107
2019-03-17T00:16:29.562Z,105
2019-03-17T00:16:35.398Z,103
2019-03-17T00:16:38.838Z,105
2019-03-17T00:16:43.446Z,102
2019-03-17T00:16:45.905Z,100
2019-03-17T00:16:53.870Z,105
2019-03-17T00:16:59.705Z,104
2019-03-17T00:17:01.981Z,101
2019-03-17T00:17:06.651Z,100
2019-03-17T00:17:10.122Z,99
2019-03-17T00:17:16.756Z,100
2019-03-17T00:17:20.334Z,101
2019-03-17T00:17:27.587Z,102
2019-03-17T00:17:29.842Z,100
2019-03-17T00:17:32.180Z,101
2019-03-17T00:17:36.756Z,97
2019-03-17T00:17:44.133Z,98
2019-03-17T00:17:46.484Z,101
2019-03-17T00:17:49.937Z,102
2019-03-17T00:17:54.512Z,101
2019-03-17T00:18:02.510Z,99
2019-03-17T00:18:04.872Z,100
2019-03-17T00:18:09.496Z,99
2019-03-17T00:18:11.774Z,98
2019-03-17T00:18:16.292Z,99
2019-03-17T00:18:22.134Z,100
2019-03-17T00:18:24.496Z,99
2019-03-17T00:18:26.753Z,97
2019-03-17T00:18:31.539Z,100
2019-03-17T00:18:33.866Z,102
2019-03-17T00:18:39.558Z,103
2019-03-17T00:18:41.905Z,102
2019-03-17T00:18:47.762Z,103
2019-03-17T00:18:51.339Z,99
2019-03-17T00:18:55.858Z,101
2019-03-17T00:18:57.016Z,102
2019-03-17T00:19:03.714Z,107
2019-03-17T00:19:08.500Z,109
2019-03-17T00:19:11.945Z,107
2019-03-17T00:19:19.719Z,105
2019-03-17T00:19:26.470Z,102
2019-03-17T00:19:30.991Z,101
2019-03-17T00:19:32.196Z,102
2019-03-17T00:19:38.099Z,101
2019-03-17T00:19:42.718Z,100
2019-03-17T00:19:43.895Z,101
2019-03-17T00:19:48.472Z,104
2019-03-17T00:19:55.319Z,103
2019-03-17T00:20:01.198Z,101
2019-03-17T00:20:03.581Z,99
2019-03-17T00:20:07.119Z,98
2019-03-17T00:20:09.497Z,96
2019-03-17T00:20:16.337Z,97
2019-03-17T00:20:19.934Z,96
2019-03-17T00:20:32.378Z,93
2019-03-17T00:20:39.260Z,94
2019-03-17T00:20:43.842Z,96
2019-03-17T00:20:47.396Z,98
2019-03-17T00:20:53.237Z,95
2019-03-17T00:20:55.650Z,94
2019-03-17T00:20:59.070Z,92
2019-03-17T00:21:04.796Z,94
2019-03-17T00:21:08.389Z,96
2019-03-17T00:21:13.053Z,97
2019-03-17T00:21:22.094Z,104
2019-03-17T00:21:25.568Z,103
2019-03-17T00:21:31.252Z,106
2019-03-17T00:21:34.796Z,107
2019-03-17T00:21:40.661Z,104
2019-03-17T00:21:43.063Z,103
2019-03-17T00:21:49.871Z,101
2019-03-17T00:21:53.352Z,103
2019-03-17T00:22:12.774Z,100
2019-03-17T00:22:15.059Z,97
2019-03-17T00:22:24.681Z,100
2019-03-17T00:22:31.527Z,99
2019-03-17T00:22:36.164Z,101
2019-03-17T00:22:40.861Z,105
2019-03-17T00:22:46.740Z,107
2019-03-17T00:22:50.115Z,108
2019-03-17T00:22:59.312Z,109
2019-03-17T00:23:04.004Z,111
2019-03-17T00:23:09.728Z,109
2019-03-17T00:23:14.211Z,107
2019-03-17T00:23:24.094Z,109
2019-03-17T00:23:32.137Z,111
2019-03-17T00:23:35.615Z,110
2019-03-17T00:23:43.846Z,111
2019-03-17T00:23:49.685Z,115
2019-03-17T00:23:53.241Z,116
2019-03-17T00:23:57.827Z,117
2019-03-17T00:24:01.484Z,116
2019-03-17T00:24:06.161Z,114
2019-03-17T00:24:11.868Z,113
2019-03-17T00:24:15.360Z,114
2019-03-17T00:24:18.905Z,115
2019-03-17T00:24:23.459Z,116
2019-03-17T00:24:25.795Z,115
2019-03-17T00:24:31.444Z,112
2019-03-17T00:24:36.055Z,106
2019-03-17T00:24:42.034Z,107
2019-03-17T00:24:47.864Z,108
2019-03-17T00:24:54.679Z,107
2019-03-17T00:25:17.048Z,104
2019-03-17T00:25:23.923Z,109
2019-03-17T00:25:27.432Z,112
2019-03-17T00:25:29.814Z,114
2019-03-17T00:25:35.568Z,115
2019-03-17T00:25:39.089Z,116
2019-03-17T00:25:43.810Z,117
2019-03-17T00:25:46.251Z,113
2019-03-17T00:25:52.084Z,115
2019-03-17T00:25:53.268Z,118
2019-03-17T00:25:57.889Z,116
2019-03-17T00:26:03.580Z,117
2019-03-17T00:26:08.274Z,116
2019-03-17T00:26:10.553Z,113
2019-03-17T00:26:16.317Z,114
2019-03-17T00:26:18.681Z,115
2019-03-17T00:26:24.528Z,112
2019-03-17T00:26:29.273Z,111
2019-03-17T00:26:39.655Z,109
2019-03-17T00:26:43.120Z,106
2019-03-17T00:26:46.612Z,107
2019-03-17T00:26:51.158Z,109
2019-03-17T00:26:56.824Z,107
2019-03-17T00:27:03.692Z,105
2019-03-17T00:27:06.015Z,106
2019-03-17T00:27:10.576Z,103
2019-03-17T00:27:21.046Z,100
2019-03-17T00:27:27.846Z,103
2019-03-17T00:27:33.489Z,102
2019-03-17T00:27:36.951Z,99
2019-03-17T00:27:39.411Z,97
2019-03-17T00:27:45.140Z,98
2019-03-17T00:27:54.340Z,100
2019-03-17T00:27:58.949Z,101
2019-03-17T00:28:02.399Z,103
2019-03-17T00:28:08.137Z,104
2019-03-17T00:28:13.814Z,105
2019-03-17T00:28:18.494Z,103
2019-03-17T00:28:30.008Z,107
2019-03-17T00:28:34.628Z,109
2019-03-17T00:28:39.293Z,107
2019-03-17T00:28:44.243Z,109
2019-03-17T00:28:49.101Z,110
2019-03-17T00:28:53.602Z,109
2019-03-17T00:28:59.311Z,110
2019-03-17T00:29:05.048Z,109
2019-03-17T00:29:08.648Z,110
2019-03-17T00:29:20.333Z,108
2019-03-17T00:29:21.462Z,109
2019-03-17T00:29:30.687Z,107
2019-03-17T00:29:38.834Z,108
2019-03-17T00:29:46.885Z,110
2019-03-17T00:29:48.314Z,108
2019-03-17T00:29:54.051Z,109
2019-03-17T00:29:57.857Z,107
2019-03-17T00:30:06.926Z,108
2019-03-17T00:30:09.192Z,109
2019-03-17T00:30:12.715Z,111
2019-03-17T00:30:17.514Z,110
2019-03-17T00:30:20.008Z,109
2019-03-17T00:30:26.896Z,110
2019-03-17T00:30:32.394Z,111
2019-03-17T00:30:36.961Z,109
2019-03-17T00:30:44.929Z,106
2019-03-17T00:30:47.194Z,107
2019-03-17T00:30:55.230Z,106
2019-03-17T00:30:58.745Z,102
2019-03-17T00:31:01.029Z,103
2019-03-17T00:31:05.749Z,104
2019-03-17T00:31:09.148Z,108
2019-03-17T00:31:26.812Z,111
2019-03-17T00:31:33.601Z,118
2019-03-17T00:31:39.521Z,115
2019-03-17T00:31:41.844Z,117
2019-03-17T00:31:47.541Z,115
2019-03-17T00:31:49.763Z,113
2019-03-17T00:31:55.538Z,109
2019-03-17T00:31:57.858Z,107
2019-03-17T00:32:03.622Z,110
2019-03-17T00:32:08.293Z,111
2019-03-17T00:32:13.982Z,109
2019-03-17T00:32:17.454Z,111
2019-03-17T00:32:23.183Z,113
2019-03-17T00:32:29.050Z,112
2019-03-17T00:32:32.570Z,113
2019-03-17T00:32:38.459Z,114
2019-03-17T00:32:40.811Z,115
2019-03-17T00:32:45.329Z,114
2019-03-17T00:32:53.345Z,115
2019-03-17T00:32:59.146Z,111
2019-03-17T00:33:05.656Z,113
2019-03-17T00:33:10.169Z,112
2019-03-17T00:33:11.385Z,111
2019-03-17T00:33:15.911Z,109
2019-03-17T00:33:19.365Z,108
2019-03-17T00:33:21.721Z,106
2019-03-17T00:33:26.355Z,107
2019-03-17T00:33:33.205Z,110
2019-03-17T00:33:39.047Z,109
2019-03-17T00:33:45.041Z,106
2019-03-17T00:33:50.995Z,101
2019-03-17T00:33:54.464Z,100
2019-03-17T00:33:57.934Z,98
2019-03-17T00:34:02.609Z,100
2019-03-17T00:34:05.064Z,99
2019-03-17T00:34:09.762Z,101
2019-03-17T00:34:10.897Z,102
2019-03-17T00:34:14.391Z,103
2019-03-17T00:34:17.808Z,102
2019-03-17T00:34:21.343Z,106
2019-03-17T00:34:26.085Z,107
2019-03-17T00:34:45.892Z,105
2019-03-17T00:34:54.558Z,104
2019-03-17T00:34:59.344Z,103
2019-03-17T00:35:01.728Z,105
2019-03-17T00:35:06.346Z,104
2019-03-17T00:35:13.263Z,106
2019-03-17T00:35:15.563Z,104
2019-03-17T00:35:20.260Z,106
2019-03-17T00:35:23.873Z,105
2019-03-17T00:35:29.654Z,101
2019-03-17T00:35:33.102Z,100
2019-03-17T00:35:37.747Z,98
2019-03-17T00:35:41.292Z,97
2019-03-17T00:35:51.542Z,98
2019-03-17T00:35:55.045Z,96
2019-03-17T00:35:57.393Z,95
2019-03-17T00:36:00.836Z,97
2019-03-17T00:36:04.259Z,96
2019-03-17T00:36:07.722Z,93
2019-03-17T00:36:11.070Z,94
2019-03-17T00:36:14.454Z,99
2019-03-17T00:36:22.342Z,98
2019-03-17T00:36:23.469Z,97
2019-03-17T00:36:28.032Z,96
2019-03-17T00:36:29.155Z,99
2019-03-17T00:36:34.800Z,100
2019-03-17T00:36:53.266Z,104
2019-03-17T00:36:56.805Z,106
2019-03-17T00:37:03.544Z,110
2019-03-17T00:37:08.240Z,112
2019-03-17T00:37:11.702Z,110
2019-03-17T00:37:16.477Z,112
2019-03-17T00:37:20.010Z,115
2019-03-17T00:37:24.643Z,117
2019-03-17T00:37:27.011Z,115
2019-03-17T00:37:31.644Z,116
2019-03-17T00:37:37.464Z,113
2019-03-17T00:37:43.268Z,112
2019-03-17T00:37:45.625Z,111
2019-03-17T00:37:53.743Z,113
2019-03-17T00:38:00.080Z,115
2019-03-17T00:38:05.969Z,114
2019-03-17T00:38:07.102Z,112
2019-03-17T00:38:12.810Z,113
2019-03-17T00:38:17.312Z,110
2019-03-17T00:38:22.075Z,111
2019-03-17T00:38:25.611Z,110
2019-03-17T00:38:31.385Z,109
2019-03-17T00:38:33.663Z,111
2019-03-17T00:38:39.566Z,110
2019-03-17T00:38:45.382Z,106
2019-03-17T00:38:51.240Z,108
2019-03-17T00:38:54.748Z,112
2019-03-17T00:38:59.422Z,111
2019-03-17T00:39:02.929Z,108
2019-03-17T00:39:04.060Z,106
2019-03-17T00:39:10.782Z,105
2019-03-17T00:39:15.300Z,107
2019-03-17T00:39:18.889Z,106
2019-03-17T00:39:23.456Z,108
2019-03-17T00:39:29.240Z,109
2019-03-17T00:39:33.998Z,107
2019-03-17T00:39:37.563Z,106
2019-03-17T00:39:44.473Z,107
2019-03-17T00:39:48.859Z,109
2019-03-17T00:39:55.840Z,105
2019-03-17T00:40:02.920Z,106
2019-03-17T00:40:07.589Z,105
2019-03-17T00:40:13.483Z,104
2019-03-17T00:40:14.696Z,106
2019-03-17T00:40:20.644Z,107
2019-03-17T00:40:26.291Z,104
2019-03-17T00:40:30.957Z,102
2019-03-17T00:40:33.238Z,100
2019-03-17T00:40:37.876Z,102
2019-03-17T00:40:45.924Z,107
2019-03-17T00:40:51.721Z,104
2019-03-17T00:40:55.166Z,108
2019-03-17T00:41:04.448Z,109
2019-03-17T00:41:08.927Z,111
2019-03-17T00:41:12.396Z,109
2019-03-17T00:41:18.103Z,110
2019-03-17T00:41:22.603Z,113
2019-03-17T00:41:27.205Z,111
2019-03-17T00:41:33.849Z,109
2019-03-17T00:41:39.809Z,107
2019-03-17T00:41:47.830Z,106
2019-03-17T00:41:58.188Z,99
2019-03-17T00:42:01.786Z,102
2019-03-17T00:42:02.999Z,101
2019-03-17T00:42:07.537Z,99
2019-03-17T00:42:14.328Z,101
2019-03-17T00:42:18.992Z,102
2019-03-17T00:42:25.006Z,100
2019-03-17T00:42:30.842Z,99
2019-03-17T00:42:33.252Z,100
2019-03-17T00:42:38.947Z,99
2019-03-17T00:42:42.426Z,96
2019-03-17T00:42:44.661Z,95
2019-03-17T00:42:46.960Z,97
2019-03-17T00:42:52.854Z,96
2019-03-17T00:42:56.364Z,95
2019-03-17T00:43:00.986Z,94
2019-03-17T00:43:03.746Z,96
2019-03-17T00:43:08.441Z,94
2019-03-17T00:43:11.927Z,95
2019-03-17T00:43:19.895Z,97
2019-03-17T00:43:25.651Z,98
2019-03-17T00:43:28.009Z,101
2019-03-17T00:43:33.672Z,104
2019-03-17T00:43:40.611Z,105
2019-03-17T00:43:46.574Z,107
2019-03-17T00:43:50.010Z,105
2019-03-17T00:43:53.538Z,104
2019-03-17T00:44:00.308Z,95
2019-03-17T00:44:03.744Z,97
2019-03-17T00:44:09.559Z,98
2019-03-17T00:44:10.760Z,99
2019-03-17T00:44:18.768Z,100
2019-03-17T00:44:23.427Z,104
2019-03-17T00:44:25.764Z,106
2019-03-17T00:44:30.299Z,107
2019-03-17T00:44:33.645Z,108
2019-03-17T00:44:38.274Z,105
2019-03-17T00:44:40.607Z,106
2019-03-17T00:44:45.184Z,107
2019-03-17T00:44:48.610Z,105
2019-03-17T00:44:52.237Z,104
2019-03-17T00:44:54.556Z,102
2019-03-17T00:44:58.029Z,100
2019-03-17T00:45:06.235Z,99
2019-03-17T00:45:14.979Z,98
2019-03-17T00:45:16.108Z,99
2019-03-17T00:45:21.706Z,100
2019-03-17T00:45:28.526Z,99
2019-03-17T00:45:36.670Z,100
2019-03-17T00:45:40.107Z,102
2019-03-17T00:45:42.411Z,103
2019-03-17T00:45:46.960Z,104
2019-03-17T00:45:50.488Z,105
2019-03-17T00:45:55.063Z,104
2019-03-17T00:46:02.921Z,103
2019-03-17T00:46:07.541Z,101
2019-03-17T00:46:15.579Z,98
2019-03-17T00:46:20.168Z,100
2019-03-17T00:46:23.770Z,99
2019-03-17T00:46:26.092Z,101
2019-03-17T00:46:29.484Z,100
2019-03-17T00:46:33.058Z,102
2019-03-17T00:46:35.312Z,101
2019-03-17T00:46:38.713Z,103
2019-03-17T00:46:41.017Z,104
2019-03-17T00:46:45.603Z,107
2019-03-17T00:46:49.207Z,102
2019-03-17T00:46:53.838Z,100
2019-03-17T00:47:00.763Z,105
2019-03-17T00:47:05.402Z,104
2019-03-17T00:47:11.875Z,102
2019-03-17T00:47:16.600Z,99
2019-03-17T00:47:21.260Z,100
2019-03-17T00:47:26.004Z,99
2019-03-17T00:47:28.332Z,98
2019-03-17T00:47:32.880Z,99
2019-03-17T00:47:34.138Z,101
2019-03-17T00:47:39.801Z,100
2019-03-17T00:47:44.448Z,102
2019-03-17T00:47:50.240Z,103
2019-03-17T00:47:52.516Z,102
2019-03-17T00:47:58.294Z,101
2019-03-17T00:48:06.208Z,92
2019-03-17T00:48:10.922Z,94
2019-03-17T00:48:13.210Z,95
2019-03-17T00:48:20.006Z,92
2019-03-17T00:48:22.265Z,93
2019-03-17T00:48:28.137Z,95
2019-03-17T00:48:33.943Z,96
2019-03-17T00:48:38.642Z,93
2019-03-17T00:48:42.096Z,90
2019-03-17T00:48:46.769Z,89
2019-03-17T00:48:58.521Z,90
2019-03-17T00:49:04.302Z,89
2019-03-17T00:49:11.111Z,91
2019-03-17T00:49:14.515Z,93
2019-03-17T00:49:21.330Z,96
2019-03-17T00:49:24.895Z,94
2019-03-17T00:49:30.682Z,93
2019-03-17T00:49:31.838Z,94
2019-03-17T00:49:36.358Z,93
2019-03-17T00:49:47.883Z,96
2019-03-17T00:49:49.081Z,95
2019-03-17T00:49:55.759Z,94
2019-03-17T00:49:58.020Z,93
2019-03-17T00:50:08.406Z,95
2019-03-17T00:50:17.665Z,93
2019-03-17T00:50:24.635Z,91
2019-03-17T00:50:26.960Z,90
2019-03-17T00:50:30.367Z,87
2019-03-17T00:50:34.919Z,89
2019-03-17T00:50:42.649Z,91
2019-03-17T00:50:48.809Z,90
2019-03-17T00:50:54.787Z,89
2019-03-17T00:51:01.868Z,90
2019-03-17T00:51:05.322Z,88
2019-03-17T00:51:12.204Z,89
2019-03-17T00:51:18.952Z,91
2019-03-17T00:51:24.702Z,92
2019-03-17T00:51:28.118Z,93
2019-03-17T00:51:33.963Z,96
2019-03-17T00:51:40.933Z,98
2019-03-17T00:51:46.780Z,99
2019-03-17T00:51:52.538Z,97
2019-03-17T00:51:57.313Z,95
2019-03-17T00:51:59.686Z,96
2019-03-17T00:52:08.815Z,95
2019-03-17T00:52:13.472Z,97
2019-03-17T00:52:16.965Z,98
2019-03-17T00:52:22.822Z,101
2019-03-17T00:52:27.524Z,102
2019-03-17T00:52:29.893Z,101
2019-03-17T00:52:36.765Z,99
2019-03-17T00:52:44.904Z,100
2019-03-17T00:52:51.860Z,99
2019-03-17T00:52:57.666Z,97
2019-03-17T00:53:02.345Z,100
2019-03-17T00:53:05.794Z,99
2019-03-17T00:53:08.143Z,98
2019-03-17T00:53:12.815Z,97
2019-03-17T00:53:18.494Z,99
2019-03-17T00:53:21.921Z,101
2019-03-17T00:53:25.414Z,99
2019-03-17T00:53:36.578Z,97
2019-03-17T00:53:39.983Z,94
2019-03-17T00:53:44.615Z,93
2019-03-17T00:53:48.087Z,94
2019-03-17T00:53:50.385Z,95
2019-03-17T00:53:56.360Z,96
2019-03-17T00:53:59.859Z,95
2019-03-17T00:54:05.588Z,92
2019-03-17T00:54:12.443Z,94
2019-03-17T00:54:15.906Z,93
2019-03-17T00:54:23.006Z,95
2019-03-17T00:54:25.405Z,96
2019-03-17T00:54:33.606Z,95
2019-03-17T00:54:37.192Z,96
2019-03-17T00:54:40.649Z,95
2019-03-17T00:54:49.684Z,94
2019-03-17T00:54:59.888Z,93
2019-03-17T00:55:13.833Z,92
2019-03-17T00:55:17.496Z,91
2019-03-17T00:55:18.750Z,92
2019-03-17T00:55:22.201Z,93
2019-03-17T00:55:24.724Z,92
2019-03-17T00:55:28.243Z,93
2019-03-17T00:55:30.623Z,95
2019-03-17T00:55:35.221Z,98
2019-03-17T00:55:41.029Z,99
2019-03-17T00:55:46.830Z,101
2019-03-17T00:55:50.222Z,103
2019-03-17T00:55:51.402Z,105
2019-03-17T00:56:01.705Z,107
2019-03-17T00:56:06.323Z,105
2019-03-17T00:56:14.377Z,91
2019-03-17T00:56:16.772Z,90
2019-03-17T00:56:20.223Z,92
2019-03-17T00:56:22.665Z,91
2019-03-17T00:56:24.950Z,92
2019-03-17T00:56:28.461Z,91
2019-03-17T00:56:30.790Z,92
2019-03-17T00:56:33.090Z,90
2019-03-17T00:56:38.827Z,91
2019-03-17T00:56:45.835Z,89
2019-03-17T00:56:56.141Z,91
2019-03-17T00:57:00.788Z,92
2019-03-17T00:57:02.066Z,93
2019-03-17T00:57:06.809Z,92
2019-03-17T00:57:09.168Z,93
2019-03-17T00:57:13.714Z,95
2019-03-17T00:57:16.001Z,93
2019-03-17T00:57:21.793Z,92
2019-03-17T00:57:25.262Z,93
2019-03-17T00:57:28.741Z,92
2019-03-17T00:57:33.496Z,91
2019-03-17T00:57:34.685Z,90
2019-03-17T00:57:40.403Z,87
2019-03-17T00:57:43.940Z,88
2019-03-17T00:57:49.690Z,89
2019-03-17T00:57:52.077Z,88
2019-03-17T00:57:54.372Z,87
2019-03-17T00:58:02.090Z,89
2019-03-17T00:58:08.820Z,91
2019-03-17T00:58:15.577Z,92
2019-03-17T00:58:19.116Z,90
2019-03-17T00:58:24.745Z,89
2019-03-17T00:58:27.049Z,90
2019-03-17T00:58:29.442Z,91
2019-03-17T00:58:33.911Z,94
2019-03-17T00:58:36.263Z,96
2019-03-17T00:58:42.167Z,98
2019-03-17T00:58:50.254Z,99
2019-03-17T00:58:54.872Z,102
2019-03-17T00:58:58.617Z,100
2019-03-17T00:59:06.633Z,102
2019-03-17T00:59:14.637Z,100
2019-03-17T00:59:17.001Z,98
2019-03-17T00:59:19.391Z,96
2019-03-17T00:59:24.134Z,97
2019-03-17T00:59:27.405Z,96
2019-03-17T00:59:29.684Z,98
2019-03-17T00:59:33.072Z,100
2019-03-17T00:59:38.899Z,99
2019-03-17T00:59:42.399Z,100
2019-03-17T00:59:45.805Z,101
2019-03-17T00:59:53.843Z,96
2019-03-17T00:59:58.549Z,98
2019-03-17T01:00:02.211Z,95
2019-03-17T01:00:06.782Z,92
2019-03-17T01:00:09.463Z,90
2019-03-17T01:00:11.775Z,89
2019-03-17T01:00:20.299Z,92
2019-03-17T01:00:25.983Z,90
2019-03-17T01:00:31.936Z,89
2019-03-17T01:00:34.199Z,87
2019-03-17T01:00:37.596Z,89
2019-03-17T01:00:43.345Z,87
2019-03-17T01:00:51.704Z,90
2019-03-17T01:00:54.086Z,91
2019-03-17T01:01:04.639Z,94
2019-03-17T01:01:08.239Z,92
2019-03-17T01:01:11.813Z,93
2019-03-17T01:01:21.806Z,91
2019-03-17T01:01:25.383Z,93
2019-03-17T01:01:29.965Z,94
2019-03-17T01:01:33.351Z,93
2019-03-17T01:01:35.596Z,92
2019-03-17T01:01:36.680Z,93
2019-03-17T01:01:42.581Z,91
2019-03-17T01:01:46.214Z,92
2019-03-17T01:01:48.594Z,91
2019-03-17T01:01:54.531Z,88
2019-03-17T01:01:58.004Z,91
2019-03-17T01:02:01.529Z,89
2019-03-17T01:02:09.504Z,87
2019-03-17T01:02:12.957Z,84
2019-03-17T01:02:20.792Z,98
2019-03-17T01:02:25.501Z,97
2019-03-17T01:02:32.368Z,95
2019-03-17T01:02:36.924Z,94
2019-03-17T01:02:39.208Z,93
2019-03-17T01:02:42.729Z,94
2019-03-17T01:02:47.323Z,95
2019-03-17T01:02:53.116Z,99
2019-03-17T01:02:56.670Z,96
2019-03-17T01:02:58.938Z,95
2019-03-17T01:03:03.621Z,97
2019-03-17T01:03:15.130Z,98
2019-03-17T01:03:20.852Z,99
2019-03-17T01:03:31.111Z,97
2019-03-17T01:03:34.679Z,95
2019-03-17T01:03:38.150Z,97
2019-03-17T01:03:43.986Z,101
2019-03-17T01:03:47.476Z,102
2019-03-17T01:03:48.565Z,104
2019-03-17T01:03:52.153Z,101
2019-03-17T01:04:05.963Z,99
2019-03-17T01:04:12.866Z,93
2019-03-17T01:04:21.928Z,98
2019-03-17T01:04:24.361Z,96
2019-03-17T01:04:29.008Z,95
2019-03-17T01:04:32.390Z,94
2019-03-17T01:04:35.869Z,93
2019-03-17T01:04:39.331Z,92
2019-03-17T01:04:42.752Z,91
2019-03-17T01:04:56.777Z,92
2019-03-17T01:05:02.822Z,88
2019-03-17T01:05:06.241Z,87
2019-03-17T01:05:10.946Z,88
2019-03-17T01:05:13.159Z,89
2019-03-17T01:05:19.016Z,90
2019-03-17T01:05:24.844Z,91
2019-03-17T01:05:31.076Z,90
2019-03-17T01:05:35.927Z,89
2019-03-17T01:05:39.410Z,90
2019-03-17T01:05:44.095Z,92
2019-03-17T01:05:48.762Z,95
2019-03-17T01:05:49.868Z,96
2019-03-17T01:05:53.433Z,95
2019-03-17T01:06:02.857Z,94
2019-03-17T01:06:10.782Z,95
2019-03-17T01:06:11.942Z,94
2019-03-17T01:06:17.577Z,93
2019-03-17T01:06:25.334Z,94
2019-03-17T01:06:29.394Z,95
2019-03-17T01:06:32.939Z,96
2019-03-17T01:06:36.409Z,93
2019-03-17T01:06:37.564Z,92
2019-03-17T01:06:45.566Z,89
2019-03-17T01:06:49.076Z,91
2019-03-17T01:06:55.981Z,90
2019-03-17T01:06:59.451Z,87
2019-03-17T01:07:06.343Z,89
2019-03-17T01:07:08.658Z,91
2019-03-17T01:07:14.460Z,89
2019-03-17T01:07:18.131Z,92
2019-03-17T01:07:23.779Z,90
2019-03-17T01:07:26.066Z,91
2019-03-17T01:07:31.823Z,90
2019-03-17T01:07:36.444Z,91
2019-03-17T01:07:39.952Z,92
2019-03-17T01:07:46.793Z,91
2019-03-17T01:07:51.439Z,90
2019-03-17T01:07:56.005Z,92
2019-03-17T01:07:59.564Z,93
2019-03-17T01:08:04.129Z,92
2019-03-17T01:08:06.491Z,91
2019-03-17T01:08:09.946Z,93
2019-03-17T01:08:15.828Z,92
2019-03-17T01:08:26.066Z,90
2019-03-17T01:08:30.628Z,88
2019-03-17T01:08:35.304Z,91
2019-03-17T01:08:41.020Z,93
2019-03-17T01:08:43.349Z,92
2019-03-17T01:08:49.143Z,95
2019-03-17T01:08:52.616Z,93
2019-03-17T01:08:57.232Z,91
2019-03-17T01:09:03.988Z,90
2019-03-17T01:09:07.429Z,89
2019-03-17T01:09:12.070Z,88